Naomi, South Dakota
Current Conditions -  °F | °C
As of 3:56 AM on Friday 19 Dec 2014 (Local Time) from KFSD Reporting Station
Overcast Overcast  
Wind Chill: 20°   Ceiling: 1200
Heat Index: 28°   Visibility: 10mi
Dew Point: 25°   Wind: 8mph
Humidity: 88%   Direction: 190°S
Pressure: 30.15"   Gusts: NA
Location:  43.3014°N, 96.8655°W
Report Text: KFSD 190956Z AUTO 19007KT 10SM OVC012 M02/M04 A3015 RMK AO2 SLP229 T10221039
Loading
Personal Weather Stations






























Interactive Weather Map New forecast layout! Learn more

10-Day Weather Forecast

Advertisements
Track Severe Weather on mobile